createdAt,value
2023-05-04T00:00:27.830Z,99.90
2023-05-04T00:02:55.547Z,99.90
2023-05-04T00:05:23.371Z,99.90
2023-05-04T00:07:51.005Z,99.90
2023-05-04T00:10:18.653Z,99.90
2023-05-04T00:12:46.514Z,99.90
2023-05-04T00:15:14.390Z,99.90
2023-05-04T00:17:42.139Z,99.90
2023-05-04T00:20:10.311Z,99.90
2023-05-04T00:22:37.857Z,99.90
2023-05-04T00:25:06.829Z,99.90
2023-05-04T00:27:35.632Z,99.90
2023-05-04T00:30:03.718Z,99.90
2023-05-04T00:32:31.463Z,99.90
2023-05-04T00:35:00.312Z,99.90
2023-05-04T00:37:27.939Z,99.90
2023-05-04T00:39:55.490Z,99.90
2023-05-04T00:42:23.121Z,99.90
2023-05-04T00:44:50.667Z,99.90
2023-05-04T00:47:19.908Z,99.90
2023-05-04T00:49:47.672Z,99.90
2023-05-04T00:52:15.831Z,99.90
2023-05-04T00:54:46.702Z,99.90
2023-05-04T00:57:16.061Z,99.90
2023-05-04T00:59:43.590Z,99.90
2023-05-04T01:02:11.213Z,99.90
2023-05-04T01:04:38.754Z,99.90
2023-05-04T01:07:22.727Z,99.90
2023-05-04T01:10:10.221Z,99.90
2023-05-04T01:13:12.185Z,99.90
2023-05-04T01:15:40.943Z,99.90
2023-05-04T01:18:08.717Z,99.90
2023-05-04T01:20:36.488Z,99.90
2023-05-04T01:23:04.490Z,99.90
2023-05-04T01:25:54.596Z,99.90
2023-05-04T01:28:35.035Z,99.90
2023-05-04T01:31:03.895Z,99.90
2023-05-04T01:33:32.325Z,99.90
2023-05-04T01:36:00.326Z,99.90
2023-05-04T01:38:28.878Z,99.90
2023-05-04T01:40:57.487Z,99.90
2023-05-04T01:43:25.299Z,99.90
2023-05-04T01:45:52.838Z,99.90
2023-05-04T01:48:20.416Z,99.90
2023-05-04T01:50:48.182Z,99.90
2023-05-04T01:53:15.747Z,99.90
2023-05-04T01:55:43.258Z,99.90
2023-05-04T01:58:11.000Z,99.90
2023-05-04T02:00:38.689Z,99.90
2023-05-04T02:03:06.765Z,99.90
2023-05-04T02:05:34.384Z,99.90
2023-05-04T02:08:01.931Z,99.90
2023-05-04T02:10:29.554Z,99.90
2023-05-04T02:12:57.293Z,99.90
2023-05-04T02:15:24.804Z,99.90
2023-05-04T02:17:52.340Z,99.90
2023-05-04T02:20:20.338Z,99.90
2023-05-04T02:22:47.844Z,99.90
2023-05-04T02:25:16.080Z,99.90
2023-05-04T02:27:43.712Z,99.90
2023-05-04T02:30:11.973Z,99.90
2023-05-04T02:32:39.529Z,99.90
2023-05-04T02:35:07.809Z,99.90
2023-05-04T02:37:35.421Z,99.90
2023-05-04T02:40:04.376Z,99.90
2023-05-04T02:42:32.490Z,99.90
2023-05-04T02:45:00.015Z,99.90
2023-05-04T02:47:27.551Z,99.90
2023-05-04T02:49:55.123Z,99.90
2023-05-04T02:52:22.716Z,99.90
2023-05-04T02:54:52.355Z,99.90
2023-05-04T02:57:20.851Z,99.90
2023-05-04T02:59:48.460Z,99.90
2023-05-04T03:02:16.063Z,99.90
2023-05-04T03:04:43.696Z,99.90
2023-05-04T03:07:11.977Z,99.90
2023-05-04T03:09:39.603Z,99.90
2023-05-04T03:12:07.278Z,99.90
2023-05-04T03:14:34.825Z,99.90
2023-05-04T03:17:02.787Z,99.90
2023-05-04T03:19:30.322Z,99.90
2023-05-04T03:21:57.881Z,99.90
2023-05-04T03:24:25.751Z,99.90
2023-05-04T03:26:53.375Z,99.90
2023-05-04T03:29:20.877Z,99.90
2023-05-04T03:31:48.420Z,99.90
2023-05-04T03:34:18.350Z,99.90
2023-05-04T03:36:46.092Z,99.90
2023-05-04T03:39:13.576Z,99.90
2023-05-04T03:41:41.099Z,99.90
2023-05-04T03:44:08.972Z,99.90
2023-05-04T03:46:36.606Z,99.90
2023-05-04T03:49:04.193Z,99.90
2023-05-04T03:51:31.669Z,99.90
2023-05-04T03:53:59.939Z,99.90
2023-05-04T03:56:27.974Z,99.90
2023-05-04T03:58:55.658Z,99.90
2023-05-04T04:01:23.591Z,99.90
2023-05-04T04:03:51.263Z,99.90
2023-05-04T04:06:19.372Z,99.90
2023-05-04T04:08:46.980Z,99.90
2023-05-04T04:11:15.949Z,99.90
2023-05-04T04:13:43.749Z,99.90
2023-05-04T04:16:11.689Z,99.90
2023-05-04T04:18:39.728Z,99.90
2023-05-04T04:21:07.440Z,99.90
2023-05-04T04:23:34.928Z,99.90
2023-05-04T04:26:02.539Z,99.90
2023-05-04T04:28:30.048Z,99.90
2023-05-04T04:30:57.587Z,99.90
2023-05-04T04:33:25.468Z,99.90
2023-05-04T04:35:53.321Z,99.90
2023-05-04T04:38:21.553Z,99.90
2023-05-04T04:40:49.122Z,99.90
2023-05-04T04:43:16.681Z,99.90
2023-05-04T04:45:45.377Z,99.90
2023-05-04T04:48:13.370Z,99.90
2023-05-04T04:50:41.312Z,99.90
2023-05-04T04:53:09.027Z,99.90
2023-05-04T04:55:36.623Z,99.90
2023-05-04T04:58:04.220Z,99.90
2023-05-04T05:00:31.721Z,99.90
2023-05-04T05:02:59.314Z,99.90
2023-05-04T05:05:27.406Z,99.90
2023-05-04T05:07:55.319Z,99.90
2023-05-04T05:10:23.062Z,99.90
2023-05-04T05:12:51.280Z,99.90
2023-05-04T05:15:18.919Z,99.90
2023-05-04T05:17:46.621Z,99.90
2023-05-04T05:20:15.435Z,99.90
2023-05-04T05:22:43.306Z,99.90
2023-05-04T05:25:13.554Z,99.90
2023-05-04T05:27:41.307Z,99.90
2023-05-04T05:30:09.106Z,99.90
2023-05-04T05:32:36.691Z,99.90
2023-05-04T05:35:05.385Z,99.90
2023-05-04T05:37:33.145Z,99.90
2023-05-04T05:40:00.996Z,99.90
2023-05-04T05:42:30.696Z,99.90
2023-05-04T05:44:58.522Z,99.90
2023-05-04T05:47:26.095Z,99.90
2023-05-04T05:49:54.429Z,99.90
2023-05-04T05:52:21.924Z,99.90
2023-05-04T05:54:49.456Z,99.90
2023-05-04T05:57:17.030Z,99.90
2023-05-04T05:59:44.897Z,99.90
2023-05-04T06:02:14.999Z,99.90
2023-05-04T06:04:43.462Z,99.90
2023-05-04T06:07:11.347Z,99.90
2023-05-04T06:09:38.867Z,99.90
2023-05-04T06:12:12.290Z,99.90
2023-05-04T06:14:40.247Z,99.90
2023-05-04T06:17:07.754Z,99.90
2023-05-04T06:19:36.566Z,99.90
2023-05-04T06:22:04.397Z,97.30
2023-05-04T06:24:32.816Z,95.40
2023-05-04T06:27:00.319Z,92.80
2023-05-04T06:29:27.856Z,93.10
2023-05-04T06:31:55.961Z,93.00
2023-05-04T06:34:23.529Z,92.40
2023-05-04T06:36:51.126Z,96.70
2023-05-04T06:39:18.867Z,98.40
2023-05-04T06:41:46.378Z,96.90
2023-05-04T06:44:13.951Z,97.20
2023-05-04T06:46:41.534Z,95.80
2023-05-04T06:49:09.094Z,94.20
2023-05-04T06:51:37.825Z,94.90
2023-05-04T06:54:05.729Z,92.70
2023-05-04T06:56:33.257Z,93.70
2023-05-04T06:59:00.853Z,93.70
2023-05-04T07:01:28.492Z,92.20
2023-05-04T07:03:58.455Z,93.30
2023-05-04T07:06:27.353Z,91.80
2023-05-04T07:08:54.868Z,91.10
2023-05-04T07:11:22.396Z,89.40
2023-05-04T07:13:50.618Z,89.70
2023-05-04T07:16:18.207Z,89.40
2023-05-04T07:18:45.732Z,90.70
2023-05-04T07:21:26.739Z,90.00
2023-05-04T07:23:55.644Z,91.80
2023-05-04T07:26:23.591Z,90.00
2023-05-04T07:28:51.122Z,90.50
2023-05-04T07:31:18.668Z,87.70
2023-05-04T07:33:46.234Z,87.50
2023-05-04T07:36:13.782Z,88.70
2023-05-04T07:38:41.816Z,89.80
2023-05-04T07:41:09.382Z,88.70
2023-05-04T07:43:36.862Z,90.40
2023-05-04T07:46:04.526Z,90.70
2023-05-04T07:48:34.640Z,91.40
2023-05-04T07:51:02.192Z,89.00
2023-05-04T07:53:29.747Z,90.70
2023-05-04T07:56:01.113Z,87.20
2023-05-04T07:58:28.625Z,87.00
2023-05-04T08:00:56.335Z,85.50
2023-05-04T08:03:23.873Z,80.70
2023-05-04T08:05:51.404Z,76.60
2023-05-04T08:08:18.935Z,70.20
2023-05-04T08:10:46.480Z,74.40
2023-05-04T08:13:14.074Z,74.50
2023-05-04T08:15:41.668Z,77.30
2023-05-04T08:18:09.673Z,72.90
2023-05-04T08:20:37.471Z,70.40
2023-05-04T08:23:05.267Z,76.70
2023-05-04T08:25:32.826Z,76.00
2023-05-04T08:28:00.345Z,74.30
2023-05-04T08:30:27.951Z,75.80
2023-05-04T08:32:59.434Z,76.00
2023-05-04T08:35:28.113Z,71.40
2023-05-04T08:37:55.812Z,67.70
2023-05-04T08:40:24.387Z,71.20
2023-05-04T08:42:52.671Z,71.80
2023-05-04T08:45:21.810Z,67.10
2023-05-04T08:47:49.498Z,63.70
2023-05-04T08:50:17.304Z,65.60
2023-05-04T08:52:49.133Z,70.20
2023-05-04T08:55:17.563Z,70.70
2023-05-04T08:57:45.549Z,70.60
2023-05-04T09:00:16.650Z,67.70
2023-05-04T09:02:46.360Z,71.00
2023-05-04T09:05:14.725Z,68.70
2023-05-04T09:07:42.874Z,69.80
2023-05-04T09:10:10.879Z,73.70
2023-05-04T09:12:38.497Z,71.60
2023-05-04T09:15:19.742Z,71.90
2023-05-04T09:18:05.597Z,66.40
2023-05-04T09:20:47.556Z,62.40
2023-05-04T09:23:17.983Z,61.80
2023-05-04T09:25:53.569Z,65.50
2023-05-04T09:28:33.756Z,66.80
2023-05-04T09:31:02.651Z,67.60
2023-05-04T09:33:30.511Z,66.60
2023-05-04T09:36:00.663Z,63.00
2023-05-04T09:38:30.235Z,65.90
2023-05-04T09:40:57.815Z,64.50
2023-05-04T09:43:25.501Z,63.20
2023-05-04T09:45:53.463Z,66.20
2023-05-04T09:48:26.991Z,66.90
2023-05-04T09:50:58.642Z,68.30
2023-05-04T09:53:30.424Z,66.90
2023-05-04T09:56:07.984Z,66.20
2023-05-04T09:58:36.992Z,66.80
2023-05-04T10:01:05.244Z,65.70
2023-05-04T10:03:33.666Z,68.30
2023-05-04T10:06:04.534Z,67.80
2023-05-04T10:08:32.832Z,67.40
2023-05-04T10:11:00.612Z,66.40
2023-05-04T10:13:28.305Z,68.10
2023-05-04T10:16:20.801Z,64.80
2023-05-04T10:19:23.192Z,65.40
2023-05-04T10:22:08.747Z,62.70
2023-05-04T10:25:10.552Z,64.60
2023-05-04T10:27:56.329Z,67.40
2023-05-04T10:30:24.344Z,66.30
2023-05-04T10:32:59.190Z,64.20
2023-05-04T10:35:28.027Z,62.80
2023-05-04T10:37:56.739Z,66.90
2023-05-04T10:40:40.657Z,67.40
2023-05-04T10:43:11.488Z,65.50
2023-05-04T10:45:42.113Z,65.60
2023-05-04T10:48:10.721Z,66.20
2023-05-04T10:50:45.261Z,62.20
2023-05-04T10:53:14.565Z,60.80
2023-05-04T10:55:48.911Z,64.40
2023-05-04T10:58:19.314Z,63.30
2023-05-04T11:00:48.419Z,65.40
2023-05-04T11:03:16.314Z,64.90
2023-05-04T11:05:45.750Z,65.80
2023-05-04T11:08:19.932Z,63.90
2023-05-04T11:10:48.853Z,66.90
2023-05-04T11:13:17.016Z,64.50
2023-05-04T11:15:54.092Z,65.90
2023-05-04T11:18:35.460Z,68.90
2023-05-04T11:21:03.433Z,67.90
2023-05-04T11:23:31.425Z,65.50
2023-05-04T11:25:59.173Z,67.70
2023-05-04T11:28:36.804Z,66.90
2023-05-04T11:31:33.804Z,64.70
2023-05-04T11:34:01.433Z,65.20
2023-05-04T11:36:29.026Z,67.70
2023-05-04T11:38:57.798Z,65.70
2023-05-04T11:41:29.873Z,66.30
2023-05-04T11:43:58.905Z,68.80
2023-05-04T11:46:27.440Z,63.60
2023-05-04T11:48:55.055Z,66.40
2023-05-04T11:51:25.504Z,65.50
2023-05-04T11:53:54.450Z,68.50
2023-05-04T11:56:22.175Z,69.20
2023-05-04T11:58:49.697Z,69.50
2023-05-04T12:01:17.982Z,71.10
2023-05-04T12:03:53.827Z,71.10
2023-05-04T12:06:34.004Z,72.90
2023-05-04T12:09:06.532Z,72.70
2023-05-04T12:11:35.449Z,72.20
2023-05-04T12:14:09.961Z,74.00
2023-05-04T12:16:38.944Z,75.50
2023-05-04T12:19:12.957Z,75.40
2023-05-04T12:21:59.083Z,73.50
2023-05-04T12:24:28.001Z,73.20
2023-05-04T12:26:55.555Z,73.20
2023-05-04T12:29:23.162Z,73.00
2023-05-04T12:31:50.667Z,73.10
2023-05-04T12:34:18.514Z,73.10
2023-05-04T12:36:46.513Z,73.40
2023-05-04T12:39:14.416Z,75.90
2023-05-04T12:41:41.929Z,75.00
2023-05-04T12:44:11.875Z,72.40
2023-05-04T12:46:39.439Z,72.80
2023-05-04T12:49:07.124Z,73.90
2023-05-04T12:51:34.666Z,73.20
2023-05-04T12:54:02.166Z,73.50
2023-05-04T12:56:29.914Z,74.10
2023-05-04T12:58:57.485Z,72.10
2023-05-04T13:01:25.163Z,72.60
2023-05-04T13:03:52.732Z,74.20
2023-05-04T13:06:20.633Z,71.20
2023-05-04T13:08:48.542Z,71.00
2023-05-04T13:11:19.334Z,70.00
2023-05-04T13:13:46.977Z,69.80
2023-05-04T13:16:14.623Z,71.40
2023-05-04T13:18:42.156Z,71.20
2023-05-04T13:21:09.690Z,69.20
2023-05-04T13:23:37.206Z,70.90
2023-05-04T13:26:04.768Z,73.40
2023-05-04T13:28:32.325Z,71.00
2023-05-04T13:30:59.899Z,72.00
2023-05-04T13:33:29.432Z,71.70
2023-05-04T13:35:58.743Z,70.50
2023-05-04T13:38:26.416Z,73.60
2023-05-04T13:40:54.993Z,73.70
2023-05-04T13:43:22.928Z,71.80
2023-05-04T13:45:50.749Z,70.70
2023-05-04T13:48:18.277Z,73.30
2023-05-04T13:50:46.298Z,72.80
2023-05-04T13:53:13.850Z,72.50
2023-05-04T13:55:41.365Z,69.90
2023-05-04T13:58:09.000Z,70.40
2023-05-04T14:00:36.573Z,71.60
2023-05-04T14:03:04.759Z,70.50
2023-05-04T14:05:32.414Z,72.00
2023-05-04T14:07:59.878Z,71.90
2023-05-04T14:10:27.524Z,74.50
2023-05-04T14:12:55.244Z,72.30
2023-05-04T14:15:23.302Z,72.70
2023-05-04T14:17:51.218Z,74.90
2023-05-04T14:20:18.835Z,74.10
2023-05-04T14:22:46.393Z,72.40
2023-05-04T14:25:14.237Z,74.40
2023-05-04T14:27:44.836Z,73.30
2023-05-04T14:30:12.894Z,72.40
2023-05-04T14:32:41.331Z,72.20
2023-05-04T14:35:10.797Z,67.50
2023-05-04T14:37:40.073Z,69.10
2023-05-04T14:40:10.614Z,67.70
2023-05-04T14:42:38.660Z,68.50
2023-05-04T14:45:08.443Z,64.50
2023-05-04T14:47:36.506Z,64.90
2023-05-04T14:50:05.270Z,65.60
2023-05-04T14:52:33.088Z,65.90
2023-05-04T14:55:00.759Z,63.50
2023-05-04T14:57:28.228Z,65.40
2023-05-04T14:59:55.748Z,62.40
2023-05-04T15:02:23.772Z,62.90
2023-05-04T15:04:51.376Z,62.80
2023-05-04T15:07:21.003Z,60.90
2023-05-04T15:09:48.691Z,60.50
2023-05-04T15:12:16.830Z,62.10
2023-05-04T15:14:44.795Z,60.20
2023-05-04T15:17:12.478Z,62.90
2023-05-04T15:19:40.087Z,62.70
2023-05-04T15:22:08.015Z,62.40
2023-05-04T15:24:35.732Z,62.60
2023-05-04T15:27:03.828Z,63.50
2023-05-04T15:29:31.822Z,62.90
2023-05-04T15:31:59.490Z,64.70
2023-05-04T15:34:27.099Z,63.80
2023-05-04T15:36:55.539Z,63.60
2023-05-04T15:39:23.100Z,62.10
2023-05-04T15:41:50.699Z,62.40
2023-05-04T15:44:21.087Z,62.80
2023-05-04T15:46:48.884Z,63.20
2023-05-04T15:49:16.649Z,65.50
2023-05-04T15:51:44.131Z,64.30
2023-05-04T15:54:11.854Z,66.20
2023-05-04T15:56:39.402Z,66.90
2023-05-04T15:59:07.384Z,64.90
2023-05-04T16:01:35.004Z,64.90
2023-05-04T16:04:02.726Z,64.90
2023-05-04T16:06:30.230Z,63.50
2023-05-04T16:08:57.799Z,67.00
2023-05-04T16:11:25.330Z,66.60
2023-05-04T16:13:53.175Z,65.60
2023-05-04T16:16:20.910Z,65.00
2023-05-04T16:18:48.504Z,66.10
2023-05-04T16:21:16.102Z,65.80
2023-05-04T16:23:43.731Z,67.30
2023-05-04T16:26:11.460Z,66.60
2023-05-04T16:28:40.694Z,66.70
2023-05-04T16:31:10.253Z,66.30
2023-05-04T16:33:40.291Z,67.30
2023-05-04T16:36:08.291Z,68.60
2023-05-04T16:38:36.022Z,67.90
2023-05-04T16:41:03.734Z,66.90
2023-05-04T16:43:32.173Z,68.70
2023-05-04T16:45:59.837Z,68.90
2023-05-04T16:48:27.381Z,67.70
2023-05-04T16:50:55.777Z,69.20
2023-05-04T16:53:24.045Z,68.90
2023-05-04T16:55:51.658Z,68.40
2023-05-04T16:58:19.277Z,68.20
2023-05-04T17:00:46.818Z,70.00
2023-05-04T17:03:14.340Z,70.70
2023-05-04T17:05:42.098Z,70.20
2023-05-04T17:08:11.456Z,70.70
2023-05-04T17:10:39.776Z,71.60
2023-05-04T17:13:07.732Z,72.00
2023-05-04T17:15:35.190Z,72.70
2023-05-04T17:18:02.687Z,73.80
2023-05-04T17:20:32.282Z,72.50
2023-05-04T17:23:00.178Z,72.30
2023-05-04T17:25:28.099Z,71.40
2023-05-04T17:27:55.975Z,72.20
2023-05-04T17:30:23.586Z,73.00
2023-05-04T17:32:51.331Z,71.60
2023-05-04T17:35:25.156Z,73.80
2023-05-04T17:37:57.996Z,75.20
2023-05-04T17:40:27.955Z,74.00
2023-05-04T17:42:56.397Z,74.00
2023-05-04T17:45:24.016Z,76.50
2023-05-04T17:47:52.000Z,76.10
2023-05-04T17:50:20.094Z,75.50
2023-05-04T17:52:52.535Z,76.70
2023-05-04T17:55:20.172Z,76.50
2023-05-04T17:57:47.660Z,77.30
2023-05-04T18:00:15.629Z,78.20
2023-05-04T18:02:43.224Z,79.50
2023-05-04T18:05:10.952Z,81.70
2023-05-04T18:07:38.887Z,83.80
2023-05-04T18:10:06.993Z,82.50
2023-05-04T18:12:35.643Z,82.20
2023-05-04T18:15:08.381Z,81.70
2023-05-04T18:17:37.975Z,81.40
2023-05-04T18:20:08.351Z,81.50
2023-05-04T18:22:36.866Z,81.50
2023-05-04T18:25:04.966Z,83.10
2023-05-04T18:27:36.892Z,83.80
2023-05-04T18:30:06.010Z,85.00
2023-05-04T18:32:34.074Z,85.00
2023-05-04T18:35:01.993Z,87.50
2023-05-04T18:37:32.956Z,86.20
2023-05-04T18:40:00.684Z,87.10
2023-05-04T18:42:29.690Z,87.90
2023-05-04T18:44:57.370Z,89.30
2023-05-04T18:47:24.874Z,90.00
2023-05-04T18:49:54.752Z,90.50
2023-05-04T18:52:22.708Z,90.10
2023-05-04T18:54:50.167Z,90.40
2023-05-04T18:57:17.982Z,90.40
2023-05-04T18:59:45.688Z,90.30
2023-05-04T19:02:13.179Z,90.70
2023-05-04T19:04:40.859Z,90.90
2023-05-04T19:07:10.010Z,91.50
2023-05-04T19:09:37.811Z,91.80
2023-05-04T19:12:05.784Z,92.30
2023-05-04T19:14:33.610Z,92.50
2023-05-04T19:17:02.397Z,93.10
2023-05-04T19:19:30.707Z,93.20
2023-05-04T19:21:58.731Z,93.50
2023-05-04T19:24:26.372Z,93.30
2023-05-04T19:26:54.143Z,93.80
2023-05-04T19:29:21.831Z,94.20
2023-05-04T19:31:49.574Z,93.90
2023-05-04T19:34:17.978Z,94.40
2023-05-04T19:36:45.754Z,94.10
2023-05-04T19:39:13.463Z,94.30
2023-05-04T19:41:40.988Z,94.60
2023-05-04T19:44:10.298Z,95.10
2023-05-04T19:46:38.081Z,95.20
2023-05-04T19:49:05.875Z,96.50
2023-05-04T19:51:34.043Z,97.00
2023-05-04T19:54:01.664Z,97.10
2023-05-04T19:56:29.386Z,97.60
2023-05-04T19:58:56.942Z,98.00
2023-05-04T20:01:24.801Z,97.90
2023-05-04T20:03:52.553Z,98.00
2023-05-04T20:06:20.197Z,98.90
2023-05-04T20:08:47.779Z,99.90
2023-05-04T20:11:15.595Z,99.90
2023-05-04T20:13:43.195Z,99.90
2023-05-04T20:16:11.102Z,99.90
2023-05-04T20:18:38.778Z,99.90
2023-05-04T20:21:06.292Z,99.90
2023-05-04T20:23:36.696Z,99.90
2023-05-04T20:26:06.037Z,99.90
2023-05-04T20:28:33.648Z,99.90
2023-05-04T20:31:01.199Z,99.90
2023-05-04T20:33:28.993Z,99.90
2023-05-04T20:35:56.612Z,99.90
2023-05-04T20:38:24.508Z,99.90
2023-05-04T20:40:52.734Z,99.90
2023-05-04T20:43:20.661Z,99.90
2023-05-04T20:45:48.425Z,99.90
2023-05-04T20:48:15.959Z,99.90
2023-05-04T20:50:43.439Z,99.90
2023-05-04T20:53:10.982Z,99.90
2023-05-04T20:55:40.634Z,99.90
2023-05-04T20:58:08.255Z,99.90
2023-05-04T21:00:36.412Z,99.90
2023-05-04T21:03:04.196Z,99.90
2023-05-04T21:05:31.809Z,99.90
2023-05-04T21:07:59.491Z,99.90
2023-05-04T21:10:27.277Z,99.90
2023-05-04T21:12:54.804Z,99.90
2023-05-04T21:15:22.279Z,99.90
2023-05-04T21:17:50.189Z,99.90
2023-05-04T21:20:17.742Z,99.90
2023-05-04T21:22:45.368Z,99.90
2023-05-04T21:25:13.025Z,99.90
2023-05-04T21:27:41.641Z,99.90
2023-05-04T21:30:11.287Z,99.90
2023-05-04T21:32:39.123Z,99.90
2023-05-04T21:35:07.683Z,99.90
2023-05-04T21:37:35.376Z,99.90
2023-05-04T21:40:03.047Z,99.90
2023-05-04T21:42:30.492Z,99.90
2023-05-04T21:44:58.195Z,99.90
2023-05-04T21:47:26.622Z,99.90
2023-05-04T21:49:54.475Z,99.90
2023-05-04T21:52:22.338Z,99.90
2023-05-04T21:54:50.330Z,99.90
2023-05-04T21:57:17.922Z,99.90
2023-05-04T21:59:49.609Z,99.90
2023-05-04T22:02:17.448Z,99.90
2023-05-04T22:04:44.980Z,99.90
2023-05-04T22:07:12.803Z,99.90
2023-05-04T22:09:40.397Z,99.90
2023-05-04T22:12:08.357Z,99.90
2023-05-04T22:14:36.059Z,99.90
2023-05-04T22:17:03.774Z,99.90
2023-05-04T22:19:31.426Z,99.90
2023-05-04T22:21:58.924Z,99.90
2023-05-04T22:24:27.232Z,99.90
2023-05-04T22:26:54.796Z,99.90
2023-05-04T22:29:22.249Z,99.90
2023-05-04T22:31:49.795Z,99.90
2023-05-04T22:34:17.273Z,99.90
2023-05-04T22:36:44.757Z,99.90
2023-05-04T22:39:12.568Z,99.90
2023-05-04T22:41:40.074Z,99.90
2023-05-04T22:44:07.588Z,99.90
2023-05-04T22:46:35.195Z,99.90
2023-05-04T22:49:02.679Z,99.90
2023-05-04T22:51:30.395Z,99.90
2023-05-04T22:53:58.514Z,99.90
2023-05-04T22:56:26.110Z,99.90
2023-05-04T22:58:53.591Z,99.90
2023-05-04T23:01:21.496Z,99.90
2023-05-04T23:03:49.160Z,99.90
2023-05-04T23:06:16.746Z,99.90
2023-05-04T23:08:45.627Z,99.90
2023-05-04T23:11:13.085Z,99.90
2023-05-04T23:13:40.798Z,99.90
2023-05-04T23:16:08.515Z,99.90
2023-05-04T23:18:36.331Z,99.90
2023-05-04T23:21:04.162Z,99.90
2023-05-04T23:23:31.929Z,99.90
2023-05-04T23:25:59.650Z,99.90
2023-05-04T23:28:27.267Z,99.90
2023-05-04T23:30:55.929Z,99.90
2023-05-04T23:33:23.633Z,99.90
2023-05-04T23:35:55.607Z,99.90
2023-05-04T23:38:23.638Z,99.90
2023-05-04T23:41:03.748Z,99.90
2023-05-04T23:43:32.260Z,99.90
2023-05-04T23:46:04.558Z,99.90
2023-05-04T23:48:33.075Z,99.90
2023-05-04T23:51:04.858Z,99.90
2023-05-04T23:53:34.107Z,99.90
2023-05-04T23:56:04.339Z,99.90
2023-05-04T23:58:33.428Z,99.90
